HTZA/ZNZ METAR and TAF weather

Enter ICAO airport designator
Station Type Date Time Source
HTZA METAR 2019/04/19 21:00 UTC NOAA

HTZA 192100Z 12005KT 9999 FEW014 27/26 Q1011 NOSIG


Station Type Date Time Source
HTZA Decoded METAR 2019/04/19 21:00 UTC NOAA

Zanzibar / Kisauni, Tanzania (HTZA) 06-13S 039-13E 15M
Apr 19, 2019 - 05:00 PM EDT / 2019.04.19 2100 UTC
Wind: from the ESE (120 degrees) at 6 MPH (5 KT):0
Visibility: greater than 7 mile(s):0
Sky conditions: mostly clear
Temperature: 80 F (27 C)
Dew Point: 78 F (26 C)
Relative Humidity: 94%
Pressure (altimeter): 29.85 in. Hg (1011 hPa)
ob: HTZA 192100Z 12005KT 9999 FEW014 27/26 Q1011 NOSIG
cycle: 21

Station Type Date Time Source
HTZA TAF 2019/04/18 06:54 UTC NOAA

TAF HTZA 180500Z 1806/1906 21010KT 9999 BKN014 FEW016CB
TEMPO 1806/1810 5000 TSRA
BECMG 1811/1813 12010KT SCT016 FEW018CB
BECMG 1818/1820 00000KT
TEMPO 1901/1906 21010KT 5000 TSRA BKN012 FEW014CB

Example: see airport list